sensor_id;sensor_type;location;lat;lon;timestamp;pressure;altitude;pressure_sealevel;temperature;humidity
30949;BME280;17637;51.984;21.208;2022-11-14T00:00:58;100706.91;;;3.15;78.86
30949;BME280;17637;51.984;21.208;2022-11-14T00:03:25;100808.69;;;3.16;78.15
30949;BME280;17637;51.984;21.208;2022-11-14T00:05:52;99859.72;;;-1.86;78.20
30949;BME280;17637;51.984;21.208;2022-11-14T00:08:22;100105.44;;;-0.88;78.21
30949;BME280;17637;51.984;21.208;2022-11-14T00:10:51;99951.56;;;-1.52;78.04
30949;BME280;17637;51.984;21.208;2022-11-14T00:13:19;100856.38;;;4.04;79.02
30949;BME280;17637;51.984;21.208;2022-11-14T00:15:51;100825.09;;;3.24;78.60
30949;BME280;17637;51.984;21.208;2022-11-14T00:18:21;99833.66;;;-2.29;78.33
30949;BME280;17637;51.984;21.208;2022-11-14T00:20:50;100670.63;;;2.95;78.84
30949;BME280;17637;51.984;21.208;2022-11-14T00:23:19;99843.41;;;-1.93;78.00
30949;BME280;17637;51.984;21.208;2022-11-14T00:25:47;100887.34;;;3.55;78.50
30949;BME280;17637;51.984;21.208;2022-11-14T00:28:14;101588.19;;;8.38;79.34
30949;BME280;17637;51.984;21.208;2022-11-14T00:30:46;100640.16;;;2.15;78.42
30949;BME280;17637;51.984;21.208;2022-11-14T00:33:14;101352.31;;;7.02;79.16
30949;BME280;17637;51.984;21.208;2022-11-14T00:35:53;100795.84;;;3.47;78.88
30949;BME280;17637;51.984;21.208;2022-11-14T00:38:21;100765.63;;;3.53;78.74
30949;BME280;17637;51.984;21.208;2022-11-14T00:40:48;99819.88;;;-2.39;78.07
30949;BME280;17637;51.984;21.208;2022-11-14T00:43:15;100906.44;;;3.91;78.65
30949;BME280;17637;51.984;21.208;2022-11-14T00:45:43;100723.31;;;3.28;78.71
30949;BME280;17637;51.984;21.208;2022-11-14T00:48:10;101368.03;;;6.76;78.90
30949;BME280;17637;51.984;21.208;2022-11-14T00:50:38;100731.03;;;3.17;78.90
30949;BME280;17637;51.984;21.208;2022-11-14T00:53:05;100843.38;;;3.76;79.21
30949;BME280;17637;51.984;21.208;2022-11-14T00:55:33;99973.09;;;-1.37;78.98
30949;BME280;17637;51.984;21.208;2022-11-14T00:58:00;100582.03;;;1.45;78.95
30949;BME280;17637;51.984;21.208;2022-11-14T01:00:27;100835.41;;;3.13;79.13
30949;BME280;17637;51.984;21.208;2022-11-14T01:02:54;100353.06;;;1.04;78.48
30949;BME280;17637;51.984;21.208;2022-11-14T01:05:24;101549.41;;;7.08;79.48
30949;BME280;17637;51.984;21.208;2022-11-14T01:07:52;100432.28;;;1.26;78.68
30949;BME280;17637;51.984;21.208;2022-11-14T01:10:20;100809.63;;;3.46;78.83
30949;BME280;17637;51.984;21.208;2022-11-14T01:12:47;100811.16;;;2.91;78.72
30949;BME280;17637;51.984;21.208;2022-11-14T01:15:15;100554.97;;;2.36;78.64
30949;BME280;17637;51.984;21.208;2022-11-14T01:17:42;101347.16;;;5.88;79.15
30949;BME280;17637;51.984;21.208;2022-11-14T01:20:09;101571.84;;;7.93;79.31
30949;BME280;17637;51.984;21.208;2022-11-14T01:22:36;100342.41;;;0.47;78.28
30949;BME280;17637;51.984;21.208;2022-11-14T01:25:03;100790.72;;;3.80;78.81
30949;BME280;17637;51.984;21.208;2022-11-14T01:27:31;100752.72;;;3.64;78.74
30949;BME280;17637;51.984;21.208;2022-11-14T01:29:58;100687.06;;;3.27;78.52
30949;BME280;17637;51.984;21.208;2022-11-14T01:32:26;100772.25;;;2.71;78.40
30949;BME280;17637;51.984;21.208;2022-11-14T01:34:53;101273.50;;;6.51;79.01
30949;BME280;17637;51.984;21.208;2022-11-14T01:37:20;100933.19;;;3.83;78.89
30949;BME280;17637;51.984;21.208;2022-11-14T01:39:47;100826.09;;;3.77;78.75
30949;BME280;17637;51.984;21.208;2022-11-14T01:42:15;100574.66;;;2.06;77.96
30949;BME280;17637;51.984;21.208;2022-11-14T01:44:44;101543.81;;;8.41;79.17
30949;BME280;17637;51.984;21.208;2022-11-14T01:47:15;99760.22;;;-2.23;77.70
30949;BME280;17637;51.984;21.208;2022-11-14T01:49:47;99705.72;;;-2.92;77.86
30949;BME280;17637;51.984;21.208;2022-11-14T01:54:50;100733.72;;;3.60;79.40
30949;BME280;17637;51.984;21.208;2022-11-14T01:57:22;99700.00;;;-3.46;78.43
30949;BME280;17637;51.984;21.208;2022-11-14T01:59:53;99505.22;;;-3.72;78.98
30949;BME280;17637;51.984;21.208;2022-11-14T02:02:24;99595.81;;;-3.53;78.67
30949;BME280;17637;51.984;21.208;2022-11-14T02:05:02;99830.28;;;-2.25;78.66
30949;BME280;17637;51.984;21.208;2022-11-14T02:07:33;100453.94;;;1.58;79.14
30949;BME280;17637;51.984;21.208;2022-11-14T02:10:04;99738.41;;;-2.68;79.15
30949;BME280;17637;51.984;21.208;2022-11-14T02:12:32;100509.31;;;2.32;80.07
30949;BME280;17637;51.984;21.208;2022-11-14T02:15:00;100354.13;;;1.44;79.30
30949;BME280;17637;51.984;21.208;2022-11-14T02:17:28;100692.22;;;3.14;79.60
30949;BME280;17637;51.984;21.208;2022-11-14T02:22:32;100363.44;;;1.13;79.68
30949;BME280;17637;51.984;21.208;2022-11-14T02:24:59;99498.56;;;-4.31;79.12
30949;BME280;17637;51.984;21.208;2022-11-14T02:27:27;99820.69;;;-2.45;79.69
30949;BME280;17637;51.984;21.208;2022-11-14T02:30:03;100204.19;;;0.57;79.69
30949;BME280;17637;51.984;21.208;2022-11-14T02:32:30;100404.94;;;1.65;80.15
30949;BME280;17637;51.984;21.208;2022-11-14T02:35:18;101323.81;;;6.40;80.31
30949;BME280;17637;51.984;21.208;2022-11-14T02:37:48;101621.28;;;8.30;80.44
30949;BME280;17637;51.984;21.208;2022-11-14T02:40:15;100217.41;;;-0.26;80.14
30949;BME280;17637;51.984;21.208;2022-11-14T02:42:43;101246.66;;;5.90;80.49
30949;BME280;17637;51.984;21.208;2022-11-14T02:45:11;99570.88;;;-3.72;79.71
30949;BME280;17637;51.984;21.208;2022-11-14T02:47:39;99857.44;;;-2.44;80.20
30949;BME280;17637;51.984;21.208;2022-11-14T02:50:06;100375.66;;;1.57;80.58
30949;BME280;17637;51.984;21.208;2022-11-14T02:52:33;101148.75;;;5.86;80.84
30949;BME280;17637;51.984;21.208;2022-11-14T02:55:00;100465.31;;;2.10;80.32
30949;BME280;17637;51.984;21.208;2022-11-14T02:57:27;100458.28;;;1.66;79.99
30949;BME280;17637;51.984;21.208;2022-11-14T02:59:57;100514.25;;;1.74;80.02
30949;BME280;17637;51.984;21.208;2022-11-14T03:02:24;100650.00;;;3.32;79.94
30949;BME280;17637;51.984;21.208;2022-11-14T03:04:52;100648.81;;;2.26;80.08
30949;BME280;17637;51.984;21.208;2022-11-14T03:07:19;99659.84;;;-3.50;79.40
30949;BME280;17637;51.984;21.208;2022-11-14T03:09:46;101342.91;;;6.27;80.50
30949;BME280;17637;51.984;21.208;2022-11-14T03:12:17;100966.22;;;4.64;80.19
30949;BME280;17637;51.984;21.208;2022-11-14T03:14:45;99616.97;;;-2.85;79.81
30949;BME280;17637;51.984;21.208;2022-11-14T03:17:12;100382.53;;;1.55;80.08
30949;BME280;17637;51.984;21.208;2022-11-14T03:19:39;100808.03;;;4.21;80.25
30949;BME280;17637;51.984;21.208;2022-11-14T03:22:06;99892.78;;;-1.15;80.10
30949;BME280;17637;51.984;21.208;2022-11-14T03:24:33;99445.91;;;-4.16;79.64
30949;BME280;17637;51.984;21.208;2022-11-14T03:27:00;100574.75;;;2.28;80.28
30949;BME280;17637;51.984;21.208;2022-11-14T03:29:27;100598.91;;;2.42;80.39
30949;BME280;17637;51.984;21.208;2022-11-14T03:31:54;101002.44;;;5.46;80.47
30949;BME280;17637;51.984;21.208;2022-11-14T03:34:22;101607.38;;;8.23;80.76
30949;BME280;17637;51.984;21.208;2022-11-14T03:36:49;100270.44;;;0.75;80.21
30949;BME280;17637;51.984;21.208;2022-11-14T03:39:16;101164.38;;;5.60;80.45
30949;BME280;17637;51.984;21.208;2022-11-14T03:41:43;101198.13;;;6.31;80.48
30949;BME280;17637;51.984;21.208;2022-11-14T03:44:14;99553.88;;;-3.67;79.28
30949;BME280;17637;51.984;21.208;2022-11-14T03:46:41;100355.34;;;0.53;80.15
30949;BME280;17637;51.984;21.208;2022-11-14T03:49:08;101626.53;;;8.21;80.59
30949;BME280;17637;51.984;21.208;2022-11-14T03:51:35;100382.56;;;1.61;80.11
30949;BME280;17637;51.984;21.208;2022-11-14T03:54:02;100181.06;;;0.68;79.55
30949;BME280;17637;51.984;21.208;2022-11-14T03:56:29;99810.28;;;-1.65;79.83
30949;BME280;17637;51.984;21.208;2022-11-14T03:58:56;101090.69;;;6.03;80.67
30949;BME280;17637;51.984;21.208;2022-11-14T04:01:23;101270.03;;;6.55;80.48
30949;BME280;17637;51.984;21.208;2022-11-14T04:03:51;100260.88;;;0.57;79.46
30949;BME280;17637;51.984;21.208;2022-11-14T04:06:18;100821.75;;;3.53;79.96
30949;BME280;17637;51.984;21.208;2022-11-14T04:08:45;101164.38;;;5.71;80.28
30949;BME280;17637;51.984;21.208;2022-11-14T04:11:12;100063.06;;;-0.21;79.92
30949;BME280;17637;51.984;21.208;2022-11-14T04:13:40;100836.47;;;3.72;79.93
30949;BME280;17637;51.984;21.208;2022-11-14T04:16:07;100057.13;;;-0.03;79.46
30949;BME280;17637;51.984;21.208;2022-11-14T04:18:35;100408.44;;;1.81;79.84
30949;BME280;17637;51.984;21.208;2022-11-14T04:21:02;100574.91;;;2.86;79.69
30949;BME280;17637;51.984;21.208;2022-11-14T04:23:29;100091.88;;;-0.71;79.77
30949;BME280;17637;51.984;21.208;2022-11-14T04:25:56;100066.56;;;-0.04;79.71
30949;BME280;17637;51.984;21.208;2022-11-14T04:28:24;101498.69;;;8.19;80.49
30949;BME280;17637;51.984;21.208;2022-11-14T04:30:51;100508.44;;;2.27;79.96
30949;BME280;17637;51.984;21.208;2022-11-14T04:33:18;101353.16;;;7.19;80.43
30949;BME280;17637;51.984;21.208;2022-11-14T04:35:45;101460.41;;;8.21;80.45
30949;BME280;17637;51.984;21.208;2022-11-14T04:38:12;100336.72;;;0.99;79.44
30949;BME280;17637;51.984;21.208;2022-11-14T04:40:39;100727.66;;;3.55;79.84
30949;BME280;17637;51.984;21.208;2022-11-14T04:43:07;99514.91;;;-3.41;79.15
30949;BME280;17637;51.984;21.208;2022-11-14T04:45:34;100675.91;;;3.49;80.16
30949;BME280;17637;51.984;21.208;2022-11-14T04:48:01;101195.53;;;5.77;79.98
30949;BME280;17637;51.984;21.208;2022-11-14T04:50:28;100415.28;;;1.75;79.99
30949;BME280;17637;51.984;21.208;2022-11-14T04:52:55;100434.28;;;1.94;79.78
30949;BME280;17637;51.984;21.208;2022-11-14T04:55:22;100098.41;;;0.18;79.81
30949;BME280;17637;51.984;21.208;2022-11-14T04:57:56;100649.84;;;2.66;79.67
30949;BME280;17637;51.984;21.208;2022-11-14T05:00:24;100113.88;;;0.21;79.83
30949;BME280;17637;51.984;21.208;2022-11-14T05:02:51;100652.31;;;2.40;79.85
30949;BME280;17637;51.984;21.208;2022-11-14T05:05:18;100277.16;;;0.47;79.93
30949;BME280;17637;51.984;21.208;2022-11-14T05:07:45;99876.19;;;-1.63;79.39
30949;BME280;17637;51.984;21.208;2022-11-14T05:10:13;100577.50;;;3.22;79.96
30949;BME280;17637;51.984;21.208;2022-11-14T05:12:40;99531.38;;;-3.09;78.78
30949;BME280;17637;51.984;21.208;2022-11-14T05:15:08;101297.72;;;6.82;80.34
30949;BME280;17637;51.984;21.208;2022-11-14T05:17:35;100596.50;;;3.28;79.66
30949;BME280;17637;51.984;21.208;2022-11-14T05:20:03;100455.72;;;1.66;79.49
30949;BME280;17637;51.984;21.208;2022-11-14T05:22:30;99705.41;;;-2.34;79.57
30949;BME280;17637;51.984;21.208;2022-11-14T05:25:00;100907.41;;;4.36;79.95
30949;BME280;17637;51.984;21.208;2022-11-14T05:27:28;99628.50;;;-3.29;79.24
30949;BME280;17637;51.984;21.208;2022-11-14T05:29:55;101184.97;;;6.72;80.35
30949;BME280;17637;51.984;21.208;2022-11-14T05:32:23;99771.53;;;-1.96;79.34
30949;BME280;17637;51.984;21.208;2022-11-14T05:34:50;99598.34;;;-2.66;79.48
30949;BME280;17637;51.984;21.208;2022-11-14T05:37:17;101233.44;;;7.01;80.50
30949;BME280;17637;51.984;21.208;2022-11-14T05:39:46;99903.91;;;-1.14;79.42
30949;BME280;17637;51.984;21.208;2022-11-14T05:42:16;100972.25;;;4.63;80.08
30949;BME280;17637;51.984;21.208;2022-11-14T05:44:43;99883.47;;;-0.97;79.34
30949;BME280;17637;51.984;21.208;2022-11-14T05:47:10;100967.88;;;5.39;79.97
30949;BME280;17637;51.984;21.208;2022-11-14T05:49:37;100350.78;;;1.81;79.70
30949;BME280;17637;51.984;21.208;2022-11-14T05:52:04;100667.25;;;3.72;80.22
30949;BME280;17637;51.984;21.208;2022-11-14T05:54:31;100917.75;;;4.85;80.26
30949;BME280;17637;51.984;21.208;2022-11-14T05:56:58;101177.34;;;5.98;80.08
30949;BME280;17637;51.984;21.208;2022-11-14T05:59:25;99968.09;;;-1.20;79.39
30949;BME280;17637;51.984;21.208;2022-11-14T06:01:53;100860.72;;;4.51;80.02
30949;BME280;17637;51.984;21.208;2022-11-14T06:04:21;100354.66;;;0.83;79.49
30949;BME280;17637;51.984;21.208;2022-11-14T06:06:48;99976.94;;;-0.80;79.44
30949;BME280;17637;51.984;21.208;2022-11-14T06:09:16;100099.19;;;-0.01;79.60
30949;BME280;17637;51.984;21.208;2022-11-14T06:11:43;101432.66;;;8.11;80.32
30949;BME280;17637;51.984;21.208;2022-11-14T06:14:10;101245.56;;;7.05;80.35
30949;BME280;17637;51.984;21.208;2022-11-14T06:16:37;101404.16;;;7.77;80.61
30949;BME280;17637;51.984;21.208;2022-11-14T06:19:04;100162.84;;;0.25;80.01
30949;BME280;17637;51.984;21.208;2022-11-14T06:21:31;100388.38;;;1.14;79.94
30949;BME280;17637;51.984;21.208;2022-11-14T06:23:58;101205.97;;;6.09;80.30
30949;BME280;17637;51.984;21.208;2022-11-14T06:26:28;100562.84;;;2.99;79.89
30949;BME280;17637;51.984;21.208;2022-11-14T06:29:01;99889.88;;;-1.59;79.54
30949;BME280;17637;51.984;21.208;2022-11-14T06:31:28;99681.28;;;-2.59;79.61
30949;BME280;17637;51.984;21.208;2022-11-14T06:33:55;100529.06;;;2.18;80.17
30949;BME280;17637;51.984;21.208;2022-11-14T06:36:23;100825.22;;;3.67;80.03
30949;BME280;17637;51.984;21.208;2022-11-14T06:38:50;100871.94;;;4.78;79.75
30949;BME280;17637;51.984;21.208;2022-11-14T06:41:20;100237.00;;;1.01;79.43
30949;BME280;17637;51.984;21.208;2022-11-14T06:43:49;100523.88;;;2.07;79.42
30949;BME280;17637;51.984;21.208;2022-11-14T06:46:18;100599.03;;;2.84;79.31
30949;BME280;17637;51.984;21.208;2022-11-14T06:48:46;101439.56;;;8.17;79.44
30949;BME280;17637;51.984;21.208;2022-11-14T06:51:15;101452.72;;;8.01;79.30
30949;BME280;17637;51.984;21.208;2022-11-14T06:53:43;100934.16;;;5.08;79.10
30949;BME280;17637;51.984;21.208;2022-11-14T06:56:13;99869.63;;;-1.21;78.20
30949;BME280;17637;51.984;21.208;2022-11-14T06:58:44;100604.25;;;3.04;78.76
30949;BME280;17637;51.984;21.208;2022-11-14T07:01:20;101071.66;;;5.97;78.83
30949;BME280;17637;51.984;21.208;2022-11-14T07:03:48;100364.47;;;1.60;78.35
30949;BME280;17637;51.984;21.208;2022-11-14T07:06:18;101237.81;;;6.87;78.63
30949;BME280;17637;51.984;21.208;2022-11-14T07:08:45;100226.47;;;0.46;77.92
30949;BME280;17637;51.984;21.208;2022-11-14T07:11:15;100102.22;;;-0.62;77.98
30949;BME280;17637;51.984;21.208;2022-11-14T07:13:56;101444.84;;;8.07;78.86
30949;BME280;17637;51.984;21.208;2022-11-14T07:16:26;101256.88;;;7.02;78.86
30949;BME280;17637;51.984;21.208;2022-11-14T07:18:57;101275.09;;;6.99;78.69
30949;BME280;17637;51.984;21.208;2022-11-14T07:21:26;101303.59;;;7.35;78.63
30949;BME280;17637;51.984;21.208;2022-11-14T07:23:55;101432.63;;;8.16;78.89
30949;BME280;17637;51.984;21.208;2022-11-14T07:26:22;100856.38;;;4.72;78.66
30949;BME280;17637;51.984;21.208;2022-11-14T07:28:50;100339.50;;;1.49;78.65
30949;BME280;17637;51.984;21.208;2022-11-14T07:31:20;100640.34;;;2.61;78.67
30949;BME280;17637;51.984;21.208;2022-11-14T07:33:47;100347.13;;;1.19;78.09
30949;BME280;17637;51.984;21.208;2022-11-14T07:36:15;101422.13;;;8.22;78.76
30949;BME280;17637;51.984;21.208;2022-11-14T07:38:42;101420.34;;;8.30;78.63
30949;BME280;17637;51.984;21.208;2022-11-14T07:41:12;100921.13;;;5.30;78.13
30949;BME280;17637;51.984;21.208;2022-11-14T07:43:40;101425.53;;;8.31;78.38
30949;BME280;17637;51.984;21.208;2022-11-14T07:46:13;101269.66;;;7.44;77.47
30949;BME280;17637;51.984;21.208;2022-11-14T07:48:41;101415.94;;;8.37;77.49
30949;BME280;17637;51.984;21.208;2022-11-14T07:51:13;101141.59;;;6.71;77.46
30949;BME280;17637;51.984;21.208;2022-11-14T07:53:41;101065.47;;;6.26;77.36
30949;BME280;17637;51.984;21.208;2022-11-14T07:56:08;101426.38;;;8.38;77.09
30949;BME280;17637;51.984;21.208;2022-11-14T07:58:36;101228.09;;;7.24;77.59
30949;BME280;17637;51.984;21.208;2022-11-14T08:01:05;101377.06;;;7.98;77.31
30949;BME280;17637;51.984;21.208;2022-11-14T08:03:33;101423.81;;;8.29;77.64
30949;BME280;17637;51.984;21.208;2022-11-14T08:06:04;100922.84;;;5.31;77.11
30949;BME280;17637;51.984;21.208;2022-11-14T08:08:36;101420.38;;;8.24;77.59
30949;BME280;17637;51.984;21.208;2022-11-14T08:11:05;101413.41;;;8.26;77.63
30949;BME280;17637;51.984;21.208;2022-11-14T08:13:32;101281.84;;;7.36;77.39
30949;BME280;17637;51.984;21.208;2022-11-14T08:16:07;101420.31;;;8.31;77.73
30949;BME280;17637;51.984;21.208;2022-11-14T08:18:39;101302.59;;;7.60;77.91
30949;BME280;17637;51.984;21.208;2022-11-14T08:21:06;101238.59;;;7.04;77.74
30949;BME280;17637;51.984;21.208;2022-11-14T08:23:33;101004.06;;;5.87;77.72
30949;BME280;17637;51.984;21.208;2022-11-14T08:26:00;101355.34;;;7.98;77.71
30949;BME280;17637;51.984;21.208;2022-11-14T08:28:27;101399.72;;;7.88;78.28
30949;BME280;17637;51.984;21.208;2022-11-14T08:31:00;101367.53;;;7.91;78.04
30949;BME280;17637;51.984;21.208;2022-11-14T08:33:28;101302.50;;;7.71;78.09
30949;BME280;17637;51.984;21.208;2022-11-14T08:36:01;101414.22;;;8.37;78.10
30949;BME280;17637;51.984;21.208;2022-11-14T08:38:33;101368.25;;;8.15;77.77
30949;BME280;17637;51.984;21.208;2022-11-14T08:41:01;101086.13;;;6.60;77.39
30949;BME280;17637;51.984;21.208;2022-11-14T08:43:29;100601.63;;;3.79;77.53
30949;BME280;17637;51.984;21.208;2022-11-14T08:45:58;101342.13;;;8.18;78.15
30949;BME280;17637;51.984;21.208;2022-11-14T08:48:28;101081.75;;;6.65;78.19
30949;BME280;17637;51.984;21.208;2022-11-14T08:50:56;101125.88;;;6.88;78.00
30949;BME280;17637;51.984;21.208;2022-11-14T08:53:23;101389.69;;;8.58;78.24
30949;BME280;17637;51.984;21.208;2022-11-14T08:55:50;100957.34;;;5.76;77.74
30949;BME280;17637;51.984;21.208;2022-11-14T08:58:17;101180.28;;;7.33;78.02
30949;BME280;17637;51.984;21.208;2022-11-14T09:00:44;101361.25;;;8.21;78.39
30949;BME280;17637;51.984;21.208;2022-11-14T09:03:12;101401.84;;;8.64;78.26
30949;BME280;17637;51.984;21.208;2022-11-14T09:05:41;101349.88;;;8.33;77.56
30949;BME280;17637;51.984;21.208;2022-11-14T09:08:08;101254.69;;;7.75;77.51
30949;BME280;17637;51.984;21.208;2022-11-14T09:10:36;101277.91;;;8.04;77.63
30949;BME280;17637;51.984;21.208;2022-11-14T09:13:03;100020.41;;;0.61;77.03
30949;BME280;17637;51.984;21.208;2022-11-14T09:15:30;100717.19;;;4.58;76.98
30949;BME280;17637;51.984;21.208;2022-11-14T09:17:59;101166.25;;;7.47;77.86
30949;BME280;17637;51.984;21.208;2022-11-14T09:20:26;100516.19;;;3.65;77.13
30949;BME280;17637;51.984;21.208;2022-11-14T09:23:03;101346.34;;;8.40;77.24
30949;BME280;17637;51.984;21.208;2022-11-14T09:25:30;100403.38;;;2.49;76.99
30949;BME280;17637;51.984;21.208;2022-11-14T09:27:57;101328.13;;;8.31;77.65
30949;BME280;17637;51.984;21.208;2022-11-14T09:30:29;101178.38;;;7.56;77.55
30949;BME280;17637;51.984;21.208;2022-11-14T09:33:00;101318.47;;;8.44;77.14
30949;BME280;17637;51.984;21.208;2022-11-14T09:35:33;101263.16;;;8.00;77.25
30949;BME280;17637;51.984;21.208;2022-11-14T09:38:06;101034.03;;;6.69;76.61
30949;BME280;17637;51.984;21.208;2022-11-14T09:41:04;101351.25;;;8.76;76.60
30949;BME280;17637;51.984;21.208;2022-11-14T09:43:54;101339.97;;;8.73;76.87
30949;BME280;17637;51.984;21.208;2022-11-14T09:46:55;101176.59;;;7.60;76.51
30949;BME280;17637;51.984;21.208;2022-11-14T09:49:35;101348.78;;;8.62;76.89
30949;BME280;17637;51.984;21.208;2022-11-14T09:52:37;101339.06;;;8.73;76.48
30949;BME280;17637;51.984;21.208;2022-11-14T09:55:11;101076.19;;;7.14;76.23
30949;BME280;17637;51.984;21.208;2022-11-14T09:57:42;101151.41;;;7.57;76.29
30949;BME280;17637;51.984;21.208;2022-11-14T10:00:18;101225.88;;;7.92;76.41
30949;BME280;17637;51.984;21.208;2022-11-14T10:08:39;101340.13;;;8.57;75.77
30949;BME280;17637;51.984;21.208;2022-11-14T10:11:30;101173.97;;;7.63;75.52
30949;BME280;17637;51.984;21.208;2022-11-14T10:23:14;101333.97;;;8.64;75.99
30949;BME280;17637;51.984;21.208;2022-11-14T10:31:35;101327.75;;;8.76;76.24
30949;BME280;17637;51.984;21.208;2022-11-14T10:39:28;101319.06;;;8.73;75.29
30949;BME280;17637;51.984;21.208;2022-11-14T10:42:02;101056.34;;;6.99;75.08
30949;BME280;17637;51.984;21.208;2022-11-14T10:44:46;101252.66;;;8.11;74.52
30949;BME280;17637;51.984;21.208;2022-11-14T10:47:20;100862.06;;;5.76;74.72
30949;BME280;17637;51.984;21.208;2022-11-14T10:49:51;100337.00;;;2.71;74.68
30949;BME280;17637;51.984;21.208;2022-11-14T10:52:35;101317.44;;;8.62;75.02
30949;BME280;17637;51.984;21.208;2022-11-14T10:55:12;101304.34;;;8.63;74.64
30949;BME280;17637;51.984;21.208;2022-11-14T10:57:39;100849.88;;;5.88;74.41
30949;BME280;17637;51.984;21.208;2022-11-14T11:00:15;101258.66;;;8.18;74.57
30949;BME280;17637;51.984;21.208;2022-11-14T11:02:56;101299.25;;;8.54;74.58
30949;BME280;17637;51.984;21.208;2022-11-14T11:05:27;101294.00;;;8.57;74.68
30949;BME280;17637;51.984;21.208;2022-11-14T11:07:58;101006.13;;;6.88;74.35
30949;BME280;17637;51.984;21.208;2022-11-14T11:11:06;101278.47;;;8.42;74.60
30949;BME280;17637;51.984;21.208;2022-11-14T11:13:57;101281.84;;;8.53;74.70
30949;BME280;17637;51.984;21.208;2022-11-14T11:16:27;100917.41;;;5.98;74.03
30949;BME280;17637;51.984;21.208;2022-11-14T11:19:14;101251.69;;;8.20;73.85
30949;BME280;17637;51.984;21.208;2022-11-14T11:21:49;101268.03;;;8.42;73.74
30949;BME280;17637;51.984;21.208;2022-11-14T11:24:30;101020.88;;;6.91;73.42
30949;BME280;17637;51.984;21.208;2022-11-14T11:29:46;100617.75;;;4.65;72.55
30949;BME280;17637;51.984;21.208;2022-11-14T11:32:23;100791.13;;;5.64;72.26
30949;BME280;17637;51.984;21.208;2022-11-14T11:34:52;101117.97;;;7.05;73.19
30949;BME280;17637;51.984;21.208;2022-11-14T11:37:24;101247.25;;;8.29;72.39
30949;BME280;17637;51.984;21.208;2022-11-14T11:39:57;101237.50;;;8.48;72.96
30949;BME280;17637;51.984;21.208;2022-11-14T11:42:33;101232.28;;;8.51;72.39
30949;BME280;17637;51.984;21.208;2022-11-14T11:45:23;101119.19;;;7.66;72.08
30949;BME280;17637;51.984;21.208;2022-11-14T11:48:19;101234.00;;;8.51;71.94
30949;BME280;17637;51.984;21.208;2022-11-14T11:50:47;101206.34;;;8.33;72.52
30949;BME280;17637;51.984;21.208;2022-11-14T11:53:32;101164.88;;;8.08;72.59
30949;BME280;17637;51.984;21.208;2022-11-14T11:56:05;101230.69;;;8.35;73.11
30949;BME280;17637;51.984;21.208;2022-11-14T11:58:59;101237.66;;;8.33;73.12
30949;BME280;17637;51.984;21.208;2022-11-14T12:01:29;101133.00;;;7.77;73.68
30949;BME280;17637;51.984;21.208;2022-11-14T12:03:56;101175.47;;;7.90;73.61
30949;BME280;17637;51.984;21.208;2022-11-14T12:06:26;101119.19;;;7.67;73.82
30949;BME280;17637;51.984;21.208;2022-11-14T12:09:21;101225.59;;;8.20;73.52
30949;BME280;17637;51.984;21.208;2022-11-14T12:12:17;100882.63;;;6.21;73.31
30949;BME280;17637;51.984;21.208;2022-11-14T12:17:50;101222.06;;;8.27;73.93
30949;BME280;17637;51.984;21.208;2022-11-14T12:29:06;101226.41;;;8.26;73.14
30949;BME280;17637;51.984;21.208;2022-11-14T12:31:38;101134.84;;;7.64;73.37
30949;BME280;17637;51.984;21.208;2022-11-14T12:34:14;101219.47;;;8.22;73.03
30949;BME280;17637;51.984;21.208;2022-11-14T12:36:46;101144.53;;;7.52;73.45
30949;BME280;17637;51.984;21.208;2022-11-14T12:39:28;101058.78;;;7.21;72.58
30949;BME280;17637;51.984;21.208;2022-11-14T12:42:04;100888.69;;;6.15;73.34
30949;BME280;17637;51.984;21.208;2022-11-14T12:44:38;101217.78;;;8.21;73.69
30949;BME280;17637;51.984;21.208;2022-11-14T12:58:11;101220.53;;;8.06;73.59
30949;BME280;17637;51.984;21.208;2022-11-14T13:05:54;101210.16;;;8.01;73.02
30949;BME280;17637;51.984;21.208;2022-11-14T13:14:17;101142.53;;;7.77;73.47
30949;BME280;17637;51.984;21.208;2022-11-14T13:17:24;101209.16;;;8.13;73.57
30949;BME280;17637;51.984;21.208;2022-11-14T13:20:33;101209.16;;;8.13;73.77
30949;BME280;17637;51.984;21.208;2022-11-14T13:28:51;101200.50;;;8.08;73.03
30949;BME280;17637;51.984;21.208;2022-11-14T13:31:21;101163.41;;;7.80;72.83
30949;BME280;17637;51.984;21.208;2022-11-14T13:33:54;101191.84;;;8.03;72.62
30949;BME280;17637;51.984;21.208;2022-11-14T13:36:39;101195.31;;;8.05;72.48
30949;BME280;17637;51.984;21.208;2022-11-14T13:39:33;101191.00;;;8.02;72.27
30949;BME280;17637;51.984;21.208;2022-11-14T13:42:21;101189.31;;;7.97;71.95
30949;BME280;17637;51.984;21.208;2022-11-14T13:45:15;101060.56;;;7.16;71.72
30949;BME280;17637;51.984;21.208;2022-11-14T13:50:30;100887.03;;;6.07;72.15
30949;BME280;17637;51.984;21.208;2022-11-14T13:52:58;101056.34;;;7.01;71.66
30949;BME280;17637;51.984;21.208;2022-11-14T13:58:35;100891.25;;;6.25;71.72
30949;BME280;17637;51.984;21.208;2022-11-14T14:01:11;101181.50;;;7.95;71.76
30949;BME280;17637;51.984;21.208;2022-11-14T14:09:37;101183.34;;;7.84;71.52
30949;BME280;17637;51.984;21.208;2022-11-14T14:12:28;101170.28;;;7.85;71.46
30949;BME280;17637;51.984;21.208;2022-11-14T14:21:15;100961.38;;;6.38;70.67
30949;BME280;17637;51.984;21.208;2022-11-14T14:26:20;100945.69;;;6.52;71.38
30949;BME280;17637;51.984;21.208;2022-11-14T14:31:22;101162.66;;;7.62;71.37
30949;BME280;17637;51.984;21.208;2022-11-14T14:33:51;100776.53;;;5.41;71.21
30949;BME280;17637;51.984;21.208;2022-11-14T14:36:28;101152.19;;;7.68;71.38
30949;BME280;17637;51.984;21.208;2022-11-14T14:39:17;100981.19;;;6.56;70.55
30949;BME280;17637;51.984;21.208;2022-11-14T14:41:45;100826.53;;;5.77;71.17
30949;BME280;17637;51.984;21.208;2022-11-14T14:44:41;101144.41;;;7.65;71.34
30949;BME280;17637;51.984;21.208;2022-11-14T14:47:39;100695.38;;;5.02;71.17